Atena Airport

SDPC · São Paulo, 巴西

使用的TAF站离机场有41 km的距离
2024年7月17日 15:002024年7月18日 03:00有效
时间
星期三
15:00
星期三
16:00
星期三
17:00
星期三
18:00
星期三
19:00
星期三
20:00
星期三
21:00
星期三
22:00
星期三
23:00
星期四
00:00
星期四
01:00
星期四
02:00
代码
VFR
VFR
VFR
VFR
VFR
VFR
VFR
VFR
VFR
VFR
VFR
VFR
天气
天空晴朗
天空晴朗
天空晴朗
天空晴朗
天空晴朗
天空晴朗
天空晴朗
天空晴朗
天空晴朗
天空晴朗
天空晴朗
天空晴朗
能见度
10 km+
10 km+
10 km+
10 km+
10 km+
10 km+
10 km+
10 km+
10 km+
10 km+
10 km+
10 km+
天花板
-
-
-
-
-
-
-
-
-
-
-
-
060°
060°
160°
160°
160°
160°
160°
160°
160°
160°
160°
160°
160°
160°
160°
160°
160°
160°
160°
160°
160°
160°
160°
160°
速度
5 kt
5 kt
5 kt
5 kt
5 kt
5 kt
5 kt
5 kt
5 kt
5 kt
5 kt
5 kt
阵风
温度/星期日
28 °C
17:59
18 °C

原版的

TAF SBDN 171630Z 1718/1806 06005KT CAVOK TX28/1718Z TN18/1805Z
BECMG 1719/1721 16005KT RMK PGL

TAF Atena Airport

Atena Airport是,巴西中的小机场。 该机场位于纬度-22,15322和经度-51,02929。 该机场有一条跑道: 11/29. 本场的ICAO机场代码为SDPC。 机场在Curitiba FIR中。

该航空气象观测是针对Presidente Prudente Airport在2024年7月17日 13:30, 当地时间进行的。 从2024年7月17日 15:00到2024年7月18日 03:00, 当地时间有效.

预报

  • 在星期三 15:00和星期四 03:00之间

    • 风: 风来自060°方向,速度为5 kt。
    • CAVOK: 天气为CAVOK。这意味着在5.000 ft或MSA(最低安全高度)以下(以较高者为准)以下没有云。这也意味着没有观测到积雨云或高耸的积云,可见度为10 km 或者更多或更高。此外,不会有雾,降雨或其他重要天气。
    • 最低温度: 18 °C在2024年7月18日在02:00
    • 最高温度: 28 °C在2024年7月17日在15:00
  • 介于星期三 16:00和18:00之间

    • 风: 风来自160°方向,速度为5 kt。

白天

今天,太阳从07:02升起,在17:58降落。 这适用于Atena Airport,世界夏令时可能有所不同。 当地时间与世界标准时间之间的时差为-3 小时。 夏令时目前正在进行中。

报告变更